sensor_id;sensor_type;location;lat;lon;timestamp;pressure;altitude;pressure_sealevel;temperature;humidity
11525;BME280;5819;49.648;8.330;2023-03-14T00:01:30;98526.53;;;11.28;100.00
11525;BME280;5819;49.648;8.330;2023-03-14T00:03:58;98535.97;;;11.18;100.00
11525;BME280;5819;49.648;8.330;2023-03-14T00:06:29;98536.94;;;11.28;100.00
11525;BME280;5819;49.648;8.330;2023-03-14T00:08:58;98542.16;;;11.28;100.00
11525;BME280;5819;49.648;8.330;2023-03-14T00:11:27;98531.50;;;11.32;100.00
11525;BME280;5819;49.648;8.330;2023-03-14T00:13:56;98533.25;;;11.20;100.00
11525;BME280;5819;49.648;8.330;2023-03-14T00:16:24;98533.72;;;11.14;100.00
11525;BME280;5819;49.648;8.330;2023-03-14T00:18:52;98534.44;;;10.92;100.00
11525;BME280;5819;49.648;8.330;2023-03-14T00:21:20;98520.97;;;10.87;100.00
11525;BME280;5819;49.648;8.330;2023-03-14T00:23:49;98517.34;;;10.77;100.00
11525;BME280;5819;49.648;8.330;2023-03-14T00:26:19;98516.75;;;10.73;100.00
11525;BME280;5819;49.648;8.330;2023-03-14T00:28:52;98520.63;;;10.68;100.00
11525;BME280;5819;49.648;8.330;2023-03-14T00:31:22;98527.72;;;10.66;100.00
11525;BME280;5819;49.648;8.330;2023-03-14T00:33:52;98520.59;;;10.44;100.00
11525;BME280;5819;49.648;8.330;2023-03-14T00:36:21;98519.16;;;10.64;100.00
11525;BME280;5819;49.648;8.330;2023-03-14T00:38:51;98510.63;;;10.74;100.00
11525;BME280;5819;49.648;8.330;2023-03-14T00:41:22;98501.41;;;10.82;100.00
11525;BME280;5819;49.648;8.330;2023-03-14T00:43:51;98494.00;;;11.23;100.00
11525;BME280;5819;49.648;8.330;2023-03-14T00:46:19;98500.88;;;11.00;100.00
11525;BME280;5819;49.648;8.330;2023-03-14T00:48:48;98500.97;;;10.88;100.00
11525;BME280;5819;49.648;8.330;2023-03-14T00:51:16;98501.34;;;10.94;100.00
11525;BME280;5819;49.648;8.330;2023-03-14T00:53:44;98499.63;;;11.06;100.00
11525;BME280;5819;49.648;8.330;2023-03-14T00:56:13;98503.25;;;11.03;100.00
11525;BME280;5819;49.648;8.330;2023-03-14T00:58:42;98505.13;;;10.90;100.00
11525;BME280;5819;49.648;8.330;2023-03-14T01:01:13;98506.44;;;10.72;100.00
11525;BME280;5819;49.648;8.330;2023-03-14T01:03:41;98508.22;;;10.71;100.00
11525;BME280;5819;49.648;8.330;2023-03-14T01:06:11;98518.78;;;10.81;100.00
11525;BME280;5819;49.648;8.330;2023-03-14T01:08:41;98520.22;;;10.85;100.00
11525;BME280;5819;49.648;8.330;2023-03-14T01:11:13;98521.44;;;10.92;100.00
11525;BME280;5819;49.648;8.330;2023-03-14T01:13:41;98521.09;;;10.97;100.00
11525;BME280;5819;49.648;8.330;2023-03-14T01:16:11;98523.13;;;11.04;100.00
11525;BME280;5819;49.648;8.330;2023-03-14T01:18:41;98514.44;;;10.82;100.00
11525;BME280;5819;49.648;8.330;2023-03-14T01:21:13;98517.53;;;10.87;100.00
11525;BME280;5819;49.648;8.330;2023-03-14T01:23:44;98509.41;;;10.91;100.00
11525;BME280;5819;49.648;8.330;2023-03-14T01:26:15;98505.97;;;10.91;100.00
11525;BME280;5819;49.648;8.330;2023-03-14T01:28:46;98500.28;;;10.97;100.00
11525;BME280;5819;49.648;8.330;2023-03-14T01:31:15;98489.56;;;11.01;100.00
11525;BME280;5819;49.648;8.330;2023-03-14T01:33:43;98493.41;;;10.96;100.00
11525;BME280;5819;49.648;8.330;2023-03-14T01:36:12;98498.31;;;11.11;100.00
11525;BME280;5819;49.648;8.330;2023-03-14T01:38:41;98499.72;;;11.04;100.00
11525;BME280;5819;49.648;8.330;2023-03-14T01:41:15;98490.00;;;10.95;100.00
11525;BME280;5819;49.648;8.330;2023-03-14T01:43:44;98481.78;;;11.12;100.00
11525;BME280;5819;49.648;8.330;2023-03-14T01:46:37;98482.25;;;11.17;100.00
11525;BME280;5819;49.648;8.330;2023-03-14T01:49:14;98472.28;;;11.11;100.00
11525;BME280;5819;49.648;8.330;2023-03-14T01:51:53;98482.81;;;10.99;100.00
11525;BME280;5819;49.648;8.330;2023-03-14T01:54:25;98480.06;;;11.00;100.00
11525;BME280;5819;49.648;8.330;2023-03-14T01:56:58;98491.63;;;10.85;100.00
11525;BME280;5819;49.648;8.330;2023-03-14T01:59:31;98470.38;;;10.91;100.00
11525;BME280;5819;49.648;8.330;2023-03-14T02:02:00;98464.34;;;10.91;100.00
11525;BME280;5819;49.648;8.330;2023-03-14T02:04:33;98457.31;;;11.15;100.00
11525;BME280;5819;49.648;8.330;2023-03-14T02:07:06;98456.66;;;11.00;100.00
11525;BME280;5819;49.648;8.330;2023-03-14T02:09:41;98447.50;;;10.84;100.00
11525;BME280;5819;49.648;8.330;2023-03-14T02:12:17;98440.59;;;10.95;100.00
11525;BME280;5819;49.648;8.330;2023-03-14T02:14:50;98427.84;;;11.14;100.00
11525;BME280;5819;49.648;8.330;2023-03-14T02:17:23;98418.97;;;11.06;100.00
11525;BME280;5819;49.648;8.330;2023-03-14T02:20:11;98426.19;;;11.02;100.00
11525;BME280;5819;49.648;8.330;2023-03-14T02:22:45;98421.47;;;11.18;100.00
11525;BME280;5819;49.648;8.330;2023-03-14T02:25:17;98417.81;;;11.32;100.00
11525;BME280;5819;49.648;8.330;2023-03-14T02:27:51;98413.41;;;11.10;100.00
11525;BME280;5819;49.648;8.330;2023-03-14T02:30:20;98421.47;;;11.18;100.00
11525;BME280;5819;49.648;8.330;2023-03-14T02:32:51;98408.53;;;10.95;100.00
11525;BME280;5819;49.648;8.330;2023-03-14T02:35:22;98403.00;;;11.10;100.00
11525;BME280;5819;49.648;8.330;2023-03-14T02:37:53;98393.75;;;10.95;100.00
11525;BME280;5819;49.648;8.330;2023-03-14T02:40:26;98392.75;;;10.74;100.00
11525;BME280;5819;49.648;8.330;2023-03-14T02:42:55;98382.03;;;10.78;100.00
11525;BME280;5819;49.648;8.330;2023-03-14T02:45:37;98391.00;;;10.86;100.00
11525;BME280;5819;49.648;8.330;2023-03-14T02:48:11;98388.19;;;10.89;100.00
11525;BME280;5819;49.648;8.330;2023-03-14T02:50:42;98384.97;;;10.85;100.00
11525;BME280;5819;49.648;8.330;2023-03-14T02:53:13;98375.75;;;10.81;100.00
11525;BME280;5819;49.648;8.330;2023-03-14T02:55:45;98365.94;;;10.73;100.00
11525;BME280;5819;49.648;8.330;2023-03-14T02:58:16;98380.25;;;10.79;100.00
11525;BME280;5819;49.648;8.330;2023-03-14T03:00:47;98378.69;;;10.76;100.00
11525;BME280;5819;49.648;8.330;2023-03-14T03:03:16;98375.72;;;10.70;100.00
11525;BME280;5819;49.648;8.330;2023-03-14T03:05:48;98370.75;;;10.67;100.00
11525;BME280;5819;49.648;8.330;2023-03-14T03:08:18;98358.88;;;10.52;100.00
11525;BME280;5819;49.648;8.330;2023-03-14T03:10:49;98356.69;;;10.58;100.00
11525;BME280;5819;49.648;8.330;2023-03-14T03:13:19;98364.13;;;10.63;100.00
11525;BME280;5819;49.648;8.330;2023-03-14T03:15:51;98349.91;;;10.56;100.00
11525;BME280;5819;49.648;8.330;2023-03-14T03:18:20;98341.66;;;10.51;100.00
11525;BME280;5819;49.648;8.330;2023-03-14T03:20:48;98353.53;;;10.77;100.00
11525;BME280;5819;49.648;8.330;2023-03-14T03:23:16;98348.72;;;10.95;100.00
11525;BME280;5819;49.648;8.330;2023-03-14T03:25:48;98331.88;;;10.88;100.00
11525;BME280;5819;49.648;8.330;2023-03-14T03:28:16;98333.13;;;10.49;100.00
11525;BME280;5819;49.648;8.330;2023-03-14T03:30:46;98323.56;;;10.60;100.00
11525;BME280;5819;49.648;8.330;2023-03-14T03:33:14;98318.19;;;10.74;100.00
11525;BME280;5819;49.648;8.330;2023-03-14T03:35:45;98308.72;;;10.62;100.00
11525;BME280;5819;49.648;8.330;2023-03-14T03:38:16;98306.69;;;10.66;100.00
11525;BME280;5819;49.648;8.330;2023-03-14T03:40:49;98318.09;;;10.41;100.00
11525;BME280;5819;49.648;8.330;2023-03-14T03:43:16;98316.56;;;10.39;100.00
11525;BME280;5819;49.648;8.330;2023-03-14T03:45:48;98306.06;;;10.51;100.00
11525;BME280;5819;49.648;8.330;2023-03-14T03:48:17;98302.41;;;10.43;100.00
11525;BME280;5819;49.648;8.330;2023-03-14T03:50:45;98299.06;;;10.29;100.00
11525;BME280;5819;49.648;8.330;2023-03-14T03:53:16;98298.16;;;10.53;100.00
11525;BME280;5819;49.648;8.330;2023-03-14T03:56:00;98297.72;;;10.81;100.00
11525;BME280;5819;49.648;8.330;2023-03-14T03:58:30;98297.16;;;10.31;100.00
11525;BME280;5819;49.648;8.330;2023-03-14T04:00:59;98302.44;;;10.19;100.00
11525;BME280;5819;49.648;8.330;2023-03-14T04:03:27;98303.00;;;10.46;100.00
11525;BME280;5819;49.648;8.330;2023-03-14T04:05:59;98303.44;;;10.40;100.00
11525;BME280;5819;49.648;8.330;2023-03-14T04:08:29;98304.00;;;10.32;100.00
11525;BME280;5819;49.648;8.330;2023-03-14T04:10:58;98309.44;;;10.29;100.00
11525;BME280;5819;49.648;8.330;2023-03-14T04:13:50;98311.31;;;10.27;100.00
11525;BME280;5819;49.648;8.330;2023-03-14T04:16:21;98306.47;;;10.23;100.00
11525;BME280;5819;49.648;8.330;2023-03-14T04:18:53;98295.47;;;10.19;100.00
11525;BME280;5819;49.648;8.330;2023-03-14T04:21:22;98294.09;;;10.26;100.00
11525;BME280;5819;49.648;8.330;2023-03-14T04:23:54;98286.19;;;10.39;100.00
11525;BME280;5819;49.648;8.330;2023-03-14T04:26:24;98293.88;;;10.41;100.00
11525;BME280;5819;49.648;8.330;2023-03-14T04:28:52;98293.75;;;10.31;100.00
11525;BME280;5819;49.648;8.330;2023-03-14T04:31:22;98295.97;;;10.36;100.00
11525;BME280;5819;49.648;8.330;2023-03-14T04:33:51;98297.38;;;10.28;100.00
11525;BME280;5819;49.648;8.330;2023-03-14T04:36:27;98305.34;;;10.38;100.00
11525;BME280;5819;49.648;8.330;2023-03-14T04:38:56;98303.94;;;10.45;100.00
11525;BME280;5819;49.648;8.330;2023-03-14T04:41:25;98307.22;;;10.47;100.00
11525;BME280;5819;49.648;8.330;2023-03-14T04:43:53;98303.59;;;10.50;100.00
11525;BME280;5819;49.648;8.330;2023-03-14T04:46:22;98303.94;;;10.45;100.00
11525;BME280;5819;49.648;8.330;2023-03-14T04:48:50;98306.31;;;10.59;100.00
11525;BME280;5819;49.648;8.330;2023-03-14T04:51:18;98298.97;;;10.42;100.00
11525;BME280;5819;49.648;8.330;2023-03-14T04:53:49;98289.28;;;10.55;100.00
11525;BME280;5819;49.648;8.330;2023-03-14T04:56:17;98271.03;;;10.79;100.00
11525;BME280;5819;49.648;8.330;2023-03-14T04:58:45;98274.31;;;10.70;100.00
11525;BME280;5819;49.648;8.330;2023-03-14T05:01:16;98259.91;;;10.66;100.00
11525;BME280;5819;49.648;8.330;2023-03-14T05:04:05;98265.00;;;10.78;99.79
11525;BME280;5819;49.648;8.330;2023-03-14T05:06:49;98265.34;;;10.63;100.00
11525;BME280;5819;49.648;8.330;2023-03-14T05:09:35;98268.88;;;10.62;100.00
11525;BME280;5819;49.648;8.330;2023-03-14T05:12:23;98271.00;;;10.68;100.00
11525;BME280;5819;49.648;8.330;2023-03-14T05:15:09;98262.28;;;11.02;96.98
11525;BME280;5819;49.648;8.330;2023-03-14T05:17:59;98271.63;;;10.94;97.97
11525;BME280;5819;49.648;8.330;2023-03-14T05:20:53;98262.16;;;10.70;99.37
11525;BME280;5819;49.648;8.330;2023-03-14T05:23:33;98256.94;;;10.82;98.45
11525;BME280;5819;49.648;8.330;2023-03-14T05:26:10;98253.63;;;11.02;97.45
11525;BME280;5819;49.648;8.330;2023-03-14T05:29:07;98258.81;;;10.68;99.63
11525;BME280;5819;49.648;8.330;2023-03-14T05:31:55;98258.47;;;10.73;98.92
11525;BME280;5819;49.648;8.330;2023-03-14T05:34:41;98255.88;;;11.06;98.36
11525;BME280;5819;49.648;8.330;2023-03-14T05:37:25;98248.19;;;10.94;98.82
11525;BME280;5819;49.648;8.330;2023-03-14T05:40:05;98246.69;;;10.91;97.97
11525;BME280;5819;49.648;8.330;2023-03-14T05:42:46;98251.03;;;11.02;97.83
11525;BME280;5819;49.648;8.330;2023-03-14T05:45:31;98257.88;;;10.92;97.93
11525;BME280;5819;49.648;8.330;2023-03-14T05:48:24;98252.69;;;11.14;96.82
11525;BME280;5819;49.648;8.330;2023-03-14T05:51:18;98243.13;;;10.81;98.42
11525;BME280;5819;49.648;8.330;2023-03-14T05:54:10;98243.91;;;11.04;97.71
11525;BME280;5819;49.648;8.330;2023-03-14T05:56:54;98240.28;;;11.06;96.50
11525;BME280;5819;49.648;8.330;2023-03-14T05:59:37;98251.81;;;11.24;96.05
11525;BME280;5819;49.648;8.330;2023-03-14T06:02:13;98264.25;;;10.88;97.93
11525;BME280;5819;49.648;8.330;2023-03-14T06:04:52;98249.03;;;10.83;98.75
11525;BME280;5819;49.648;8.330;2023-03-14T06:07:20;98248.41;;;10.79;99.01
11525;BME280;5819;49.648;8.330;2023-03-14T06:09:49;98249.97;;;11.04;97.56
11525;BME280;5819;49.648;8.330;2023-03-14T06:12:19;98257.06;;;11.02;99.05
11525;BME280;5819;49.648;8.330;2023-03-14T06:14:47;98261.66;;;10.88;99.35
11525;BME280;5819;49.648;8.330;2023-03-14T06:17:15;98266.88;;;10.65;100.00
11525;BME280;5819;49.648;8.330;2023-03-14T06:19:52;98268.97;;;10.71;100.00
11525;BME280;5819;49.648;8.330;2023-03-14T06:22:21;98268.28;;;10.69;100.00
11525;BME280;5819;49.648;8.330;2023-03-14T06:24:53;98279.38;;;10.60;100.00
11525;BME280;5819;49.648;8.330;2023-03-14T06:27:23;98269.81;;;10.50;100.00
11525;BME280;5819;49.648;8.330;2023-03-14T06:29:54;98265.69;;;10.69;100.00
11525;BME280;5819;49.648;8.330;2023-03-14T06:32:24;98265.56;;;10.60;100.00
11525;BME280;5819;49.648;8.330;2023-03-14T06:34:55;98265.78;;;10.68;100.00
11525;BME280;5819;49.648;8.330;2023-03-14T06:37:33;98266.13;;;10.63;100.00
11525;BME280;5819;49.648;8.330;2023-03-14T06:40:06;98261.44;;;10.68;100.00
11525;BME280;5819;49.648;8.330;2023-03-14T06:42:55;98258.22;;;10.76;100.00
11525;BME280;5819;49.648;8.330;2023-03-14T06:45:25;98249.38;;;10.67;100.00
11525;BME280;5819;49.648;8.330;2023-03-14T06:47:55;98241.78;;;10.53;100.00
11525;BME280;5819;49.648;8.330;2023-03-14T06:50:30;98245.34;;;10.63;100.00
11525;BME280;5819;49.648;8.330;2023-03-14T06:52:58;98251.03;;;10.57;100.00
11525;BME280;5819;49.648;8.330;2023-03-14T06:55:33;98247.34;;;10.49;100.00
11525;BME280;5819;49.648;8.330;2023-03-14T06:58:02;98247.59;;;10.57;100.00
11525;BME280;5819;49.648;8.330;2023-03-14T07:00:35;98250.22;;;10.79;100.00
11525;BME280;5819;49.648;8.330;2023-03-14T07:03:04;98238.16;;;10.67;100.00
11525;BME280;5819;49.648;8.330;2023-03-14T07:05:38;98244.88;;;10.80;100.00
11525;BME280;5819;49.648;8.330;2023-03-14T07:08:08;98241.94;;;10.74;100.00
11525;BME280;5819;49.648;8.330;2023-03-14T07:10:38;98248.91;;;10.85;100.00
11525;BME280;5819;49.648;8.330;2023-03-14T07:13:07;98242.41;;;11.01;100.00
11525;BME280;5819;49.648;8.330;2023-03-14T07:15:44;98256.69;;;11.18;100.00
11525;BME280;5819;49.648;8.330;2023-03-14T07:18:13;98253.72;;;11.11;100.00
11525;BME280;5819;49.648;8.330;2023-03-14T07:20:41;98257.06;;;11.13;100.00
11525;BME280;5819;49.648;8.330;2023-03-14T07:23:09;98254.56;;;11.12;100.00
11525;BME280;5819;49.648;8.330;2023-03-14T07:25:44;98255.88;;;11.17;100.00
11525;BME280;5819;49.648;8.330;2023-03-14T07:28:13;98263.28;;;11.33;100.00
11525;BME280;5819;49.648;8.330;2023-03-14T07:30:46;98262.00;;;11.39;99.90
11525;BME280;5819;49.648;8.330;2023-03-14T07:33:24;98259.81;;;11.44;99.92
11525;BME280;5819;49.648;8.330;2023-03-14T07:35:58;98265.72;;;11.57;100.00
11525;BME280;5819;49.648;8.330;2023-03-14T07:38:30;98267.06;;;11.51;100.00
11525;BME280;5819;49.648;8.330;2023-03-14T07:41:12;98280.88;;;11.52;100.00
11525;BME280;5819;49.648;8.330;2023-03-14T07:43:48;98268.84;;;11.40;99.81
11525;BME280;5819;49.648;8.330;2023-03-14T07:46:16;98254.63;;;11.55;98.71
11525;BME280;5819;49.648;8.330;2023-03-14T07:48:44;98267.34;;;11.69;96.98
11525;BME280;5819;49.648;8.330;2023-03-14T07:51:12;98263.53;;;11.84;97.44
11525;BME280;5819;49.648;8.330;2023-03-14T07:53:40;98259.97;;;11.85;97.79
11525;BME280;5819;49.648;8.330;2023-03-14T07:56:12;98263.41;;;11.86;98.19
11525;BME280;5819;49.648;8.330;2023-03-14T07:58:40;98271.41;;;11.62;99.05
11525;BME280;5819;49.648;8.330;2023-03-14T08:01:08;98266.56;;;11.57;99.13
11525;BME280;5819;49.648;8.330;2023-03-14T08:03:36;98258.00;;;11.78;99.90
11525;BME280;5819;49.648;8.330;2023-03-14T08:06:05;98262.09;;;12.12;98.90
11525;BME280;5819;49.648;8.330;2023-03-14T08:08:34;98259.22;;;12.47;96.72
11525;BME280;5819;49.648;8.330;2023-03-14T08:11:03;98259.41;;;12.55;95.29
11525;BME280;5819;49.648;8.330;2023-03-14T08:13:33;98261.44;;;12.51;94.58
11525;BME280;5819;49.648;8.330;2023-03-14T08:16:01;98253.91;;;12.88;94.53
11525;BME280;5819;49.648;8.330;2023-03-14T08:18:31;98264.41;;;12.68;95.66
11525;BME280;5819;49.648;8.330;2023-03-14T08:20:59;98260.06;;;12.57;94.38
11525;BME280;5819;49.648;8.330;2023-03-14T08:23:28;98258.88;;;12.40;93.83
11525;BME280;5819;49.648;8.330;2023-03-14T08:25:57;98273.63;;;12.72;95.05
11525;BME280;5819;49.648;8.330;2023-03-14T08:28:25;98267.66;;;12.90;92.90
11525;BME280;5819;49.648;8.330;2023-03-14T08:30:59;98275.28;;;13.03;91.85
11525;BME280;5819;49.648;8.330;2023-03-14T08:33:29;98281.16;;;12.95;90.15
11525;BME280;5819;49.648;8.330;2023-03-14T08:35:59;98287.81;;;12.79;93.10
11525;BME280;5819;49.648;8.330;2023-03-14T08:38:29;98284.53;;;12.86;91.70
11525;BME280;5819;49.648;8.330;2023-03-14T08:40:59;98277.16;;;12.91;92.51
11525;BME280;5819;49.648;8.330;2023-03-14T08:43:28;98284.06;;;12.72;93.40
11525;BME280;5819;49.648;8.330;2023-03-14T08:45:59;98283.81;;;12.75;93.10
11525;BME280;5819;49.648;8.330;2023-03-14T08:48:30;98288.97;;;12.44;93.88
11525;BME280;5819;49.648;8.330;2023-03-14T08:51:04;98282.88;;;12.34;95.80
11525;BME280;5819;49.648;8.330;2023-03-14T08:53:32;98295.75;;;12.56;96.65
11525;BME280;5819;49.648;8.330;2023-03-14T08:56:00;98286.13;;;12.78;97.19
11525;BME280;5819;49.648;8.330;2023-03-14T08:58:30;98288.00;;;12.96;92.25
11525;BME280;5819;49.648;8.330;2023-03-14T09:00:59;98293.53;;;12.73;93.01
11525;BME280;5819;49.648;8.330;2023-03-14T09:03:28;98285.41;;;12.96;95.15
11525;BME280;5819;49.648;8.330;2023-03-14T09:06:01;98268.06;;;13.85;91.02
11525;BME280;5819;49.648;8.330;2023-03-14T09:08:31;98265.56;;;13.64;90.17
11525;BME280;5819;49.648;8.330;2023-03-14T09:11:02;98265.25;;;13.38;91.24
11525;BME280;5819;49.648;8.330;2023-03-14T09:13:32;98261.88;;;13.67;92.44
11525;BME280;5819;49.648;8.330;2023-03-14T09:16:04;98261.31;;;13.73;90.11
11525;BME280;5819;49.648;8.330;2023-03-14T09:18:33;98261.75;;;14.06;89.86
11525;BME280;5819;49.648;8.330;2023-03-14T09:21:02;98269.13;;;13.53;90.34
11525;BME280;5819;49.648;8.330;2023-03-14T09:23:30;98267.19;;;13.46;92.20
11525;BME280;5819;49.648;8.330;2023-03-14T09:26:00;98271.03;;;13.42;91.83
11525;BME280;5819;49.648;8.330;2023-03-14T09:28:29;98263.16;;;13.32;93.05
11525;BME280;5819;49.648;8.330;2023-03-14T09:30:57;98275.50;;;13.21;94.69
11525;BME280;5819;49.648;8.330;2023-03-14T09:33:26;98260.28;;;13.26;94.74
11525;BME280;5819;49.648;8.330;2023-03-14T09:35:57;98257.19;;;13.60;94.34
11525;BME280;5819;49.648;8.330;2023-03-14T09:38:26;98266.69;;;13.81;93.97
11525;BME280;5819;49.648;8.330;2023-03-14T09:40:55;98263.81;;;13.74;92.37
11525;BME280;5819;49.648;8.330;2023-03-14T09:43:26;98272.28;;;13.47;92.89
11525;BME280;5819;49.648;8.330;2023-03-14T09:45:58;98277.16;;;13.22;95.50
11525;BME280;5819;49.648;8.330;2023-03-14T09:48:33;98280.56;;;13.12;92.98
11525;BME280;5819;49.648;8.330;2023-03-14T09:51:07;98289.19;;;12.83;95.88
11525;BME280;5819;49.648;8.330;2023-03-14T09:53:41;98290.22;;;12.91;98.49
11525;BME280;5819;49.648;8.330;2023-03-14T09:56:13;98290.31;;;12.90;98.44
11525;BME280;5819;49.648;8.330;2023-03-14T09:58:45;98281.13;;;13.16;98.06
11525;BME280;5819;49.648;8.330;2023-03-14T10:01:16;98285.75;;;13.43;98.63
11525;BME280;5819;49.648;8.330;2023-03-14T10:03:48;98271.72;;;13.34;96.33
11525;BME280;5819;49.648;8.330;2023-03-14T10:06:16;98273.88;;;13.29;96.83
11525;BME280;5819;49.648;8.330;2023-03-14T10:08:45;98286.75;;;13.11;98.50
11525;BME280;5819;49.648;8.330;2023-03-14T10:11:15;98278.94;;;13.21;97.33
11525;BME280;5819;49.648;8.330;2023-03-14T10:14:02;98281.28;;;12.94;98.32
11525;BME280;5819;49.648;8.330;2023-03-14T10:16:33;98279.34;;;12.96;100.00
11525;BME280;5819;49.648;8.330;2023-03-14T10:19:06;98278.25;;;12.68;100.00
11525;BME280;5819;49.648;8.330;2023-03-14T10:21:40;98280.84;;;12.68;100.00
11525;BME280;5819;49.648;8.330;2023-03-14T10:24:17;98281.63;;;12.80;100.00
11525;BME280;5819;49.648;8.330;2023-03-14T10:26:48;98284.91;;;12.51;100.00
11525;BME280;5819;49.648;8.330;2023-03-14T10:29:16;98287.09;;;12.56;100.00
11525;BME280;5819;49.648;8.330;2023-03-14T10:31:50;98287.44;;;12.42;100.00
11525;BME280;5819;49.648;8.330;2023-03-14T10:34:24;98286.09;;;12.27;100.00
11525;BME280;5819;49.648;8.330;2023-03-14T10:36:53;98290.03;;;12.21;100.00
11525;BME280;5819;49.648;8.330;2023-03-14T10:39:25;98287.38;;;12.32;100.00
11525;BME280;5819;49.648;8.330;2023-03-14T10:41:56;98289.78;;;12.24;100.00
11525;BME280;5819;49.648;8.330;2023-03-14T10:44:32;98286.97;;;12.16;100.00
11525;BME280;5819;49.648;8.330;2023-03-14T10:47:03;98288.72;;;12.27;100.00
11525;BME280;5819;49.648;8.330;2023-03-14T10:49:35;98292.19;;;12.16;100.00
11525;BME280;5819;49.648;8.330;2023-03-14T10:52:14;98306.84;;;11.96;100.00
11525;BME280;5819;49.648;8.330;2023-03-14T10:54:47;98310.22;;;11.76;100.00
11525;BME280;5819;49.648;8.330;2023-03-14T10:57:14;98302.88;;;11.70;100.00
11525;BME280;5819;49.648;8.330;2023-03-14T10:59:43;98306.66;;;11.66;100.00
11525;BME280;5819;49.648;8.330;2023-03-14T11:02:23;98315.31;;;11.78;100.00
11525;BME280;5819;49.648;8.330;2023-03-14T11:05:07;98314.31;;;11.90;100.00
11525;BME280;5819;49.648;8.330;2023-03-14T11:07:42;98321.31;;;11.89;100.00
11525;BME280;5819;49.648;8.330;2023-03-14T11:10:22;98320.38;;;11.90;100.00
11525;BME280;5819;49.648;8.330;2023-03-14T11:13:03;98328.44;;;11.87;100.00
11525;BME280;5819;49.648;8.330;2023-03-14T11:15:39;98331.88;;;11.65;100.00
11525;BME280;5819;49.648;8.330;2023-03-14T11:18:23;98335.88;;;11.69;100.00
11525;BME280;5819;49.648;8.330;2023-03-14T11:20:59;98334.63;;;11.75;100.00
11525;BME280;5819;49.648;8.330;2023-03-14T11:23:36;98339.75;;;11.97;100.00
11525;BME280;5819;49.648;8.330;2023-03-14T11:26:20;98343.25;;;11.87;100.00
11525;BME280;5819;49.648;8.330;2023-03-14T11:28:57;98340.06;;;12.15;100.00
11525;BME280;5819;49.648;8.330;2023-03-14T11:31:27;98352.38;;;12.13;100.00
11525;BME280;5819;49.648;8.330;2023-03-14T11:34:00;98351.75;;;12.20;100.00
11525;BME280;5819;49.648;8.330;2023-03-14T11:36:37;98353.53;;;12.20;100.00
11525;BME280;5819;49.648;8.330;2023-03-14T11:39:11;98369.69;;;12.14;100.00
11525;BME280;5819;49.648;8.330;2023-03-14T11:41:42;98374.81;;;11.93;100.00
11525;BME280;5819;49.648;8.330;2023-03-14T11:44:17;98390.47;;;11.71;100.00
11525;BME280;5819;49.648;8.330;2023-03-14T11:46:50;98390.84;;;11.66;100.00
11525;BME280;5819;49.648;8.330;2023-03-14T11:49:29;98421.13;;;11.67;100.00
11525;BME280;5819;49.648;8.330;2023-03-14T11:52:03;98417.59;;;11.57;100.00
11525;BME280;5819;49.648;8.330;2023-03-14T11:54:36;98421.94;;;11.68;100.00
11525;BME280;5819;49.648;8.330;2023-03-14T11:57:14;98432.63;;;11.76;100.00
11525;BME280;5819;49.648;8.330;2023-03-14T11:59:48;98448.72;;;11.70;100.00
11525;BME280;5819;49.648;8.330;2023-03-14T12:02:22;98461.41;;;11.63;100.00
11525;BME280;5819;49.648;8.330;2023-03-14T12:11:00;98512.66;;;11.17;92.12
11525;BME280;5819;49.648;8.330;2023-03-14T12:13:33;98540.19;;;11.08;92.73
11525;BME280;5819;49.648;8.330;2023-03-14T12:16:06;98551.88;;;11.03;92.98
11525;BME280;5819;49.648;8.330;2023-03-14T12:18:36;98555.94;;;11.07;88.32
11525;BME280;5819;49.648;8.330;2023-03-14T12:21:11;98574.03;;;11.43;85.15
11525;BME280;5819;49.648;8.330;2023-03-14T12:23:42;98579.97;;;11.56;84.35
11525;BME280;5819;49.648;8.330;2023-03-14T12:26:16;98599.03;;;11.57;82.86
11525;BME280;5819;49.648;8.330;2023-03-14T12:28:49;98587.09;;;11.54;80.85
11525;BME280;5819;49.648;8.330;2023-03-14T12:31:38;98610.94;;;11.72;79.31
11525;BME280;5819;49.648;8.330;2023-03-14T12:34:30;98613.22;;;11.88;79.00
11525;BME280;5819;49.648;8.330;2023-03-14T12:37:04;98624.50;;;11.99;78.04
11525;BME280;5819;49.648;8.330;2023-03-14T12:39:40;98635.28;;;11.95;79.18
11525;BME280;5819;49.648;8.330;2023-03-14T12:42:13;98645.06;;;11.80;79.14
11525;BME280;5819;49.648;8.330;2023-03-14T12:44:45;98658.31;;;11.77;80.13
11525;BME280;5819;49.648;8.330;2023-03-14T12:47:50;98673.13;;;11.53;80.41
11525;BME280;5819;49.648;8.330;2023-03-14T12:50:25;98687.25;;;11.14;80.88
11525;BME280;5819;49.648;8.330;2023-03-14T12:53:19;98711.16;;;10.95;81.58
11525;BME280;5819;49.648;8.330;2023-03-14T12:55:55;98698.19;;;11.06;82.05
11525;BME280;5819;49.648;8.330;2023-03-14T12:58:29;98715.09;;;10.88;83.49
11525;BME280;5819;49.648;8.330;2023-03-14T13:01:01;98716.97;;;10.99;81.50
11525;BME280;5819;49.648;8.330;2023-03-14T13:03:39;98716.72;;;11.14;80.69
11525;BME280;5819;49.648;8.330;2023-03-14T13:06:10;98709.94;;;11.36;78.80
11525;BME280;5819;49.648;8.330;2023-03-14T13:08:40;98716.00;;;11.36;78.33
11525;BME280;5819;49.648;8.330;2023-03-14T13:11:13;98737.03;;;11.33;78.31
11525;BME280;5819;49.648;8.330;2023-03-14T13:13:46;98735.53;;;11.18;79.83
11525;BME280;5819;49.648;8.330;2023-03-14T13:16:18;98753.00;;;11.16;81.26
11525;BME280;5819;49.648;8.330;2023-03-14T13:18:48;98766.25;;;11.00;80.40
11525;BME280;5819;49.648;8.330;2023-03-14T13:21:20;98760.44;;;10.97;80.82
11525;BME280;5819;49.648;8.330;2023-03-14T13:23:57;98782.84;;;10.87;80.11
11525;BME280;5819;49.648;8.330;2023-03-14T13:26:35;98802.28;;;10.56;81.34
11525;BME280;5819;49.648;8.330;2023-03-14T13:29:16;98824.63;;;10.46;83.76
11525;BME280;5819;49.648;8.330;2023-03-14T13:31:45;98838.88;;;10.13;89.07
11525;BME280;5819;49.648;8.330;2023-03-14T13:34:14;98838.41;;;9.94;92.48
11525;BME280;5819;49.648;8.330;2023-03-14T13:36:42;98858.63;;;9.89;94.42
11525;BME280;5819;49.648;8.330;2023-03-14T13:39:12;98864.88;;;9.86;98.36
11525;BME280;5819;49.648;8.330;2023-03-14T13:41:43;98867.88;;;9.52;95.14